This is the latest recevied weather packets stored in our database for station/object SQ9SMC-13. If no packets are shown the sender has not sent any weather packets the latest 10 day(s).
| Time | Temp. | Humidity | Pressure | Rain* | Wind** | Luminosity | Snow |
|---|---|---|---|---|---|---|---|
| 1777783504 | 8.33° C | 81% | 1020.7 hPa | 0 mm | - | 40 W/m² | - |
| 1777783205 | 6.67° C | 86% | 1020.8 hPa | 0 mm | - | 37 W/m² | - |
| 1777782905 | 5.56° C | 90% | 1020.9 hPa | 0 mm | - | 35 W/m² | - |
| 1777782603 | 5° C | 92% | 1020.7 hPa | 0 mm | - | 33 W/m² | - |
| 1777782304 | 4.44° C | 91% | 1020.7 hPa | 0 mm | - | 31 W/m² | - |
| 1777782003 | 5° C | 94% | 1020.7 hPa | 0 mm | - | 28 W/m² | - |
| 1777781705 | 3.33° C | 98% | 1020.7 hPa | 0 mm | - | 26 W/m² | - |
| 1777781403 | 3.89° C | 98% | 1020.6 hPa | 0 mm | - | 23 W/m² | - |
| 1777781103 | 3.33° C | 99% | 1020.7 hPa | 0 mm | - | 21 W/m² | - |
| 1777780803 | 2.22° C | 99% | 1020.7 hPa | 0 mm | - | 18 W/m² | - |
| 1777780503 | 1.11° C | 99% | 1020.9 hPa | 0 mm | - | 16 W/m² | - |
| 1777780206 | 0.56° C | 99% | 1020.7 hPa | 0 mm | - | 12 W/m² | - |
| 1777779903 | 0.56° C | 99% | 1020.8 hPa | 0 mm | - | 11 W/m² | - |
| 1777779602 | 0.56° C | 99% | 1020.6 hPa | 0 mm | - | 9 W/m² | - |
| 1777779303 | 0.56° C | 99% | 1020.7 hPa | 0 mm | - | 7 W/m² | - |
| 1777779005 | 0.56° C | 99% | 1020.5 hPa | 0 mm | - | 6 W/m² | - |
| 1777778703 | 0.56° C | 99% | 1020.7 hPa | 0 mm | - | 4 W/m² | - |
| 1777778403 | 0.56° C | 99% | 1020.5 hPa | 0 mm | - | 3 W/m² | - |
| 1777778102 | 1.11° C | 99% | 1020.6 hPa | 0 mm | - | 2 W/m² | - |
| 1777777803 | 1.67° C | 99% | 1020.7 hPa | 0 mm | - | 1 W/m² | - |
| 1777777503 | 1.11° C | 99% | 1020.6 hPa | 0 mm | - | 0 W/m² | - |
| 1777777205 | 1.11° C | 99% | 1020.6 hPa | 0 mm | - | 0 W/m² | - |
| 1777776904 | 0.56° C | 99% | 1020.7 hPa | 0 mm | - | 0 W/m² | - |
| 1777776604 | 0.56° C | 99% | 1020.7 hPa | 0 mm | - | 0 W/m² | - |
| 1777776303 | 0.56° C | 99% | 1020.7 hPa | 0 mm | - | 0 W/m² | - |
* Rain latest hour (hover to see other rain measurements)
** Current wind speed in m/s (hover to see current wind gust speed)